createdAt,value
2022-09-03T00:02:45.540Z,15.27
2022-09-03T00:08:04.011Z,10.27
2022-09-03T00:13:06.998Z,13.13
2022-09-03T00:18:18.310Z,6.85
2022-09-03T00:23:29.719Z,9.35
2022-09-03T00:28:53.272Z,8.27
2022-09-03T00:34:00.535Z,11.15
2022-09-03T00:39:02.557Z,11.13
2022-09-03T00:44:11.169Z,9.43
2022-09-03T00:49:51.639Z,10.05
2022-09-03T00:55:13.485Z,11.75
2022-09-03T01:00:17.601Z,9.25
2022-09-03T01:05:41.096Z,8.85
2022-09-03T01:11:04.436Z,10.65
2022-09-03T01:16:32.661Z,11.87
2022-09-03T01:22:03.426Z,10.77
2022-09-03T01:27:30.116Z,8.98
2022-09-03T01:33:07.999Z,8.30
2022-09-03T01:38:33.509Z,8.07
2022-09-03T01:43:37.922Z,13.10
2022-09-03T01:48:46.794Z,10.68
2022-09-03T01:54:10.881Z,13.05
2022-09-03T01:59:55.632Z,12.00
2022-09-03T02:11:24.665Z,10.57
2022-09-03T02:16:30.973Z,11.48
2022-09-03T02:21:35.926Z,9.45
2022-09-03T02:26:37.944Z,10.52
2022-09-03T02:31:40.077Z,12.35
2022-09-03T02:36:45.920Z,13.10
2022-09-03T02:46:59.189Z,11.70
2022-09-03T02:52:06.878Z,15.30
2022-09-03T02:58:44.656Z,9.73
2022-09-03T03:11:26.237Z,9.02
2022-09-03T03:16:28.462Z,11.57
2022-09-03T03:21:37.032Z,12.73
2022-09-03T03:26:45.980Z,11.85
2022-09-03T03:31:47.917Z,10.35
2022-09-03T03:36:49.845Z,8.35
2022-09-03T03:41:52.649Z,13.93
2022-09-03T03:46:54.617Z,11.63
2022-09-03T03:51:56.628Z,13.00
2022-09-03T03:56:58.634Z,10.32
2022-09-03T04:02:00.997Z,11.55
2022-09-03T04:07:03.252Z,11.38
2022-09-03T04:12:10.968Z,9.68
2022-09-03T04:17:12.950Z,12.32
2022-09-03T04:22:15.858Z,9.75
2022-09-03T04:27:17.938Z,15.63
2022-09-03T04:32:38.356Z,13.82
2022-09-03T04:37:40.483Z,9.38
2022-09-03T04:42:42.746Z,12.20
2022-09-03T04:47:55.980Z,13.82
2022-09-03T04:53:07.045Z,12.80
2022-09-03T04:58:09.984Z,11.40
2022-09-03T05:03:12.806Z,9.55
2022-09-03T05:08:14.815Z,11.77
2022-09-03T05:13:17.777Z,11.85
2022-09-03T05:18:19.824Z,10.37
2022-09-03T05:23:22.464Z,10.20
2022-09-03T05:28:27.931Z,11.13
2022-09-03T05:33:30.366Z,10.73
2022-09-03T05:38:32.462Z,11.43
2022-09-03T05:43:35.686Z,10.15
2022-09-03T05:48:45.226Z,10.63
2022-09-03T05:53:54.827Z,8.73
2022-09-03T05:59:01.106Z,13.70
2022-09-03T06:04:05.189Z,10.43
2022-09-03T06:09:10.807Z,13.27
2022-09-03T06:14:14.374Z,7.93
2022-09-03T06:19:16.424Z,8.73
2022-09-03T06:24:21.584Z,7.72
2022-09-03T06:29:23.738Z,8.70
2022-09-03T06:34:27.207Z,9.13
2022-09-03T06:39:29.266Z,6.95
2022-09-03T06:44:31.489Z,10.05
2022-09-03T06:49:33.505Z,6.97
2022-09-03T06:54:35.433Z,11.45
2022-09-03T06:59:37.580Z,8.55
2022-09-03T07:04:39.520Z,17.25
2022-09-03T07:09:44.035Z,11.43
2022-09-03T07:14:51.094Z,6.13
2022-09-03T07:24:55.300Z,8.50
2022-09-03T07:29:57.515Z,6.25
2022-09-03T07:34:59.428Z,10.02
2022-09-03T07:40:02.058Z,9.65
2022-09-03T07:45:10.082Z,8.53
2022-09-03T07:50:12.074Z,6.55
2022-09-03T07:55:14.845Z,7.85
2022-09-03T08:00:17.754Z,9.03
2022-09-03T08:05:23.032Z,6.37
2022-09-03T08:10:26.493Z,4.20
2022-09-03T08:15:28.845Z,6.72
2022-09-03T08:20:30.906Z,10.55
2022-09-03T08:25:33.213Z,4.10
2022-09-03T08:30:36.396Z,11.63
2022-09-03T08:35:39.758Z,2.38
2022-09-03T08:40:43.514Z,5.38
2022-09-03T08:45:45.924Z,3.10
2022-09-03T08:50:55.522Z,5.63
2022-09-03T08:56:04.482Z,2.22
2022-09-03T09:01:10.174Z,2.50
2022-09-03T09:06:35.004Z,10.25
2022-09-03T09:11:47.341Z,1.80
2022-09-03T09:17:02.420Z,3.30
2022-09-03T09:22:13.254Z,3.85
2022-09-03T09:27:17.471Z,2.15
2022-09-03T09:32:21.709Z,6.68
2022-09-03T09:37:24.675Z,4.53
2022-09-03T09:42:29.989Z,3.10
2022-09-03T09:47:39.098Z,5.88
2022-09-03T09:52:41.117Z,1.88
2022-09-03T09:57:43.150Z,4.13
2022-09-03T10:02:54.769Z,3.30
2022-09-03T10:07:57.160Z,2.88
2022-09-03T10:13:09.521Z,5.82
2022-09-03T10:18:26.419Z,6.38
2022-09-03T10:23:32.735Z,1.73
2022-09-03T10:28:40.523Z,3.80
2022-09-03T10:33:53.462Z,7.32
2022-09-03T10:39:05.346Z,3.17
2022-09-03T10:44:21.281Z,4.80
2022-09-03T10:49:23.484Z,4.65
2022-09-03T10:54:29.401Z,3.00
2022-09-03T11:00:00.175Z,5.78
2022-09-03T11:05:16.310Z,6.53
2022-09-03T11:10:33.561Z,3.83
2022-09-03T11:15:40.235Z,3.33
2022-09-03T11:20:43.107Z,7.25
2022-09-03T11:25:51.250Z,6.93
2022-09-03T11:31:21.548Z,3.20
2022-09-03T11:36:38.842Z,6.40
2022-09-03T11:41:40.828Z,7.18
2022-09-03T11:46:54.293Z,2.20
2022-09-03T11:52:02.982Z,4.05
2022-09-03T11:57:16.603Z,3.85
2022-09-03T12:02:31.285Z,3.17
2022-09-03T12:07:42.537Z,10.27
2022-09-03T12:13:06.041Z,4.43
2022-09-03T12:23:49.701Z,4.95
2022-09-03T12:28:55.508Z,8.50
2022-09-03T12:34:03.070Z,2.95
2022-09-03T12:39:13.014Z,4.80
2022-09-03T12:44:15.726Z,6.05
2022-09-03T12:49:33.656Z,4.17
2022-09-03T12:54:42.841Z,3.05
2022-09-03T12:59:49.775Z,4.72
2022-09-03T13:04:52.824Z,3.90
2022-09-03T13:10:04.280Z,6.38
2022-09-03T13:15:12.825Z,5.10
2022-09-03T13:20:29.385Z,6.40
2022-09-03T13:25:38.764Z,6.55
2022-09-03T13:30:52.659Z,5.88
2022-09-03T13:36:26.496Z,3.65
2022-09-03T13:41:37.606Z,2.15
2022-09-03T13:46:52.467Z,5.20
2022-09-03T13:52:01.896Z,6.47
2022-09-03T13:57:16.443Z,6.60
2022-09-03T14:02:41.213Z,3.45
2022-09-03T14:08:08.953Z,6.25
2022-09-03T14:13:38.306Z,8.57
2022-09-03T14:18:51.687Z,5.07
2022-09-03T14:23:59.685Z,3.70
2022-09-03T14:29:05.285Z,4.22
2022-09-03T14:34:26.073Z,8.20
2022-09-03T14:39:38.383Z,4.00
2022-09-03T14:45:00.628Z,6.18
2022-09-03T14:50:50.288Z,3.42
2022-09-03T14:56:18.538Z,5.13
2022-09-03T15:01:38.905Z,5.00
2022-09-03T15:07:06.624Z,13.20
2022-09-03T15:12:33.977Z,5.75
2022-09-03T15:17:56.638Z,5.72
2022-09-03T15:23:13.539Z,14.07
2022-09-03T15:28:18.357Z,7.93
2022-09-03T15:33:44.289Z,9.55
2022-09-03T15:39:11.537Z,7.35
2022-09-03T15:44:19.772Z,9.30
2022-09-03T15:49:46.714Z,6.18
2022-09-03T15:54:57.597Z,5.57
2022-09-03T16:00:07.376Z,5.30
2022-09-03T16:05:24.754Z,4.22
2022-09-03T16:10:40.205Z,4.85
2022-09-03T16:15:47.398Z,7.07
2022-09-03T16:21:08.240Z,6.68
2022-09-03T16:26:15.213Z,2.90
2022-09-03T16:31:26.231Z,6.80
2022-09-03T16:36:53.823Z,11.68
2022-09-03T16:42:13.771Z,8.88
2022-09-03T16:47:44.802Z,6.00
2022-09-03T16:53:09.464Z,13.38
2022-09-03T16:58:30.909Z,11.75
2022-09-03T17:04:10.501Z,3.85
2022-09-03T17:09:40.418Z,5.32
2022-09-03T17:14:46.565Z,9.88
2022-09-03T17:20:26.171Z,8.43
2022-09-03T17:26:01.886Z,5.95
2022-09-03T17:31:21.579Z,9.10
2022-09-03T17:36:31.383Z,6.80
2022-09-03T17:41:45.436Z,17.60
2022-09-03T17:47:15.560Z,15.95
2022-09-03T17:52:35.736Z,27.63
2022-09-03T17:58:01.347Z,24.17
2022-09-03T18:03:26.528Z,21.60
2022-09-03T18:08:49.344Z,36.85
2022-09-03T18:14:15.925Z,35.40
2022-09-03T18:19:54.863Z,41.05
2022-09-03T18:25:17.637Z,29.35
2022-09-03T18:30:44.679Z,21.50
2022-09-03T18:36:07.922Z,14.82
2022-09-03T18:41:53.307Z,15.70
2022-09-03T18:53:18.418Z,18.60
2022-09-03T18:58:45.583Z,18.10
2022-09-03T19:04:32.586Z,22.38
2022-09-03T19:10:08.712Z,22.17
2022-09-03T19:16:06.330Z,21.08
2022-09-03T19:21:38.988Z,27.63
2022-09-03T19:27:46.068Z,21.95
2022-09-03T19:33:25.761Z,19.95
2022-09-03T19:39:01.593Z,18.13
2022-09-03T19:44:56.004Z,19.05
2022-09-03T19:50:22.204Z,15.95
2022-09-03T19:55:48.750Z,16.63
2022-09-03T20:01:09.486Z,17.63
2022-09-03T20:06:31.090Z,21.92
2022-09-03T20:11:33.782Z,12.88
2022-09-03T20:17:16.410Z,14.43
2022-09-03T20:22:28.625Z,15.93
2022-09-03T20:27:36.481Z,12.18
2022-09-03T20:32:38.442Z,13.38
2022-09-03T20:38:06.791Z,15.30
2022-09-03T20:43:23.481Z,13.70
2022-09-03T20:48:50.252Z,23.17
2022-09-03T20:54:13.977Z,11.70
2022-09-03T20:59:25.072Z,14.60
2022-09-03T21:04:59.540Z,15.80
2022-09-03T21:10:13.632Z,12.82
2022-09-03T21:15:30.869Z,12.73
2022-09-03T21:21:03.596Z,16.55
2022-09-03T21:26:29.613Z,12.60
2022-09-03T21:31:40.550Z,18.73
2022-09-03T21:36:43.672Z,17.58
2022-09-03T21:42:09.540Z,14.80
2022-09-03T21:47:17.157Z,11.98
2022-09-03T21:52:27.137Z,11.30
2022-09-03T21:57:36.789Z,15.48
2022-09-03T22:02:38.918Z,13.15
2022-09-03T22:07:46.775Z,14.00
2022-09-03T22:13:14.854Z,15.27
2022-09-03T22:18:25.626Z,14.75
2022-09-03T22:23:44.861Z,11.75
2022-09-03T22:28:55.378Z,13.15
2022-09-03T22:34:27.665Z,10.98
2022-09-03T22:39:40.862Z,13.15
2022-09-03T22:45:18.353Z,15.00
2022-09-03T22:50:37.112Z,16.10
2022-09-03T22:55:41.626Z,11.68
2022-09-03T23:01:08.145Z,18.67
2022-09-03T23:06:21.066Z,19.00
2022-09-03T23:11:27.006Z,19.33
2022-09-03T23:16:55.030Z,17.48
2022-09-03T23:22:00.421Z,18.13
2022-09-03T23:27:06.878Z,18.10
2022-09-03T23:32:09.782Z,15.27
2022-09-03T23:37:39.548Z,14.50
2022-09-03T23:43:07.245Z,12.73
2022-09-03T23:48:21.942Z,15.48
2022-09-03T23:53:53.127Z,18.90
2022-09-03T23:58:58.072Z,15.27
